sensor_id;sensor_type;location;lat;lon;timestamp;temperature;humidity
24103;DHT22;12278;53.058;9.028;2023-04-25T00:03:54;7.60;99.90
24103;DHT22;12278;53.058;9.028;2023-04-25T00:07:55;7.50;99.90
24103;DHT22;12278;53.058;9.028;2023-04-25T00:11:56;7.50;99.90
24103;DHT22;12278;53.058;9.028;2023-04-25T00:15:57;7.50;99.90
24103;DHT22;12278;53.058;9.028;2023-04-25T00:19:58;7.50;99.90
24103;DHT22;12278;53.058;9.028;2023-04-25T00:23:59;7.50;99.90
24103;DHT22;12278;53.058;9.028;2023-04-25T00:28:00;7.50;99.90
24103;DHT22;12278;53.058;9.028;2023-04-25T00:32:01;7.50;99.90
24103;DHT22;12278;53.058;9.028;2023-04-25T00:36:02;7.50;99.90
24103;DHT22;12278;53.058;9.028;2023-04-25T00:40:05;7.50;99.90
24103;DHT22;12278;53.058;9.028;2023-04-25T00:44:08;7.50;99.90
24103;DHT22;12278;53.058;9.028;2023-04-25T00:48:13;7.50;99.90
24103;DHT22;12278;53.058;9.028;2023-04-25T00:52:17;7.40;99.90
24103;DHT22;12278;53.058;9.028;2023-04-25T00:56:18;7.40;99.90
24103;DHT22;12278;53.058;9.028;2023-04-25T01:00:19;7.40;99.90
24103;DHT22;12278;53.058;9.028;2023-04-25T01:04:20;7.30;99.90
24103;DHT22;12278;53.058;9.028;2023-04-25T01:08:23;7.30;99.90
24103;DHT22;12278;53.058;9.028;2023-04-25T01:12:33;7.20;99.90
24103;DHT22;12278;53.058;9.028;2023-04-25T01:16:35;7.20;99.90
24103;DHT22;12278;53.058;9.028;2023-04-25T01:20:37;7.20;99.90
24103;DHT22;12278;53.058;9.028;2023-04-25T01:24:38;7.20;99.90
24103;DHT22;12278;53.058;9.028;2023-04-25T01:28:40;7.20;99.90
24103;DHT22;12278;53.058;9.028;2023-04-25T01:32:43;7.10;99.90
24103;DHT22;12278;53.058;9.028;2023-04-25T01:36:44;7.10;99.90
24103;DHT22;12278;53.058;9.028;2023-04-25T01:40:45;7.10;99.90
24103;DHT22;12278;53.058;9.028;2023-04-25T01:44:47;7.10;99.90
24103;DHT22;12278;53.058;9.028;2023-04-25T01:48:48;7.00;99.90
24103;DHT22;12278;53.058;9.028;2023-04-25T01:52:49;6.90;99.90
24103;DHT22;12278;53.058;9.028;2023-04-25T01:56:50;7.00;99.90
24103;DHT22;12278;53.058;9.028;2023-04-25T02:00:51;7.00;99.90
24103;DHT22;12278;53.058;9.028;2023-04-25T02:04:52;6.80;99.90
24103;DHT22;12278;53.058;9.028;2023-04-25T02:08:52;6.80;99.90
24103;DHT22;12278;53.058;9.028;2023-04-25T02:12:53;6.90;99.90
24103;DHT22;12278;53.058;9.028;2023-04-25T02:16:54;6.80;99.90
24103;DHT22;12278;53.058;9.028;2023-04-25T02:21:01;6.70;99.90
24103;DHT22;12278;53.058;9.028;2023-04-25T02:25:02;6.70;99.90
24103;DHT22;12278;53.058;9.028;2023-04-25T02:29:07;6.80;99.90
24103;DHT22;12278;53.058;9.028;2023-04-25T02:33:08;6.70;99.90
24103;DHT22;12278;53.058;9.028;2023-04-25T02:37:09;6.70;99.90
24103;DHT22;12278;53.058;9.028;2023-04-25T02:41:10;6.60;99.90
24103;DHT22;12278;53.058;9.028;2023-04-25T02:45:15;6.60;99.90
24103;DHT22;12278;53.058;9.028;2023-04-25T02:49:15;6.60;99.90
24103;DHT22;12278;53.058;9.028;2023-04-25T02:53:16;6.50;99.90
24103;DHT22;12278;53.058;9.028;2023-04-25T02:57:17;6.40;99.90
24103;DHT22;12278;53.058;9.028;2023-04-25T03:01:17;6.40;99.90
24103;DHT22;12278;53.058;9.028;2023-04-25T03:05:21;6.50;99.90
24103;DHT22;12278;53.058;9.028;2023-04-25T03:09:22;6.50;99.90
24103;DHT22;12278;53.058;9.028;2023-04-25T03:13:22;6.50;99.90
24103;DHT22;12278;53.058;9.028;2023-04-25T03:17:23;6.40;99.90
24103;DHT22;12278;53.058;9.028;2023-04-25T03:21:24;6.40;99.90
24103;DHT22;12278;53.058;9.028;2023-04-25T03:25:25;6.40;99.90
24103;DHT22;12278;53.058;9.028;2023-04-25T03:29:26;6.40;99.90
24103;DHT22;12278;53.058;9.028;2023-04-25T03:33:28;6.50;99.90
24103;DHT22;12278;53.058;9.028;2023-04-25T03:37:28;6.40;99.90
24103;DHT22;12278;53.058;9.028;2023-04-25T03:41:29;6.40;99.90
24103;DHT22;12278;53.058;9.028;2023-04-25T03:45:30;6.30;99.90
24103;DHT22;12278;53.058;9.028;2023-04-25T03:49:33;6.30;99.90
24103;DHT22;12278;53.058;9.028;2023-04-25T03:53:34;6.30;99.90
24103;DHT22;12278;53.058;9.028;2023-04-25T03:57:35;6.30;99.90
24103;DHT22;12278;53.058;9.028;2023-04-25T04:01:36;6.20;99.90
24103;DHT22;12278;53.058;9.028;2023-04-25T04:05:37;6.20;99.90
24103;DHT22;12278;53.058;9.028;2023-04-25T04:09:40;6.20;99.90
24103;DHT22;12278;53.058;9.028;2023-04-25T04:13:46;6.20;99.90
24103;DHT22;12278;53.058;9.028;2023-04-25T04:17:48;6.10;99.90
24103;DHT22;12278;53.058;9.028;2023-04-25T04:21:51;6.10;99.90
24103;DHT22;12278;53.058;9.028;2023-04-25T04:25:51;6.10;99.90
24103;DHT22;12278;53.058;9.028;2023-04-25T04:29:59;6.10;99.90
24103;DHT22;12278;53.058;9.028;2023-04-25T04:33:59;6.00;99.90
24103;DHT22;12278;53.058;9.028;2023-04-25T04:38:13;5.90;99.90
24103;DHT22;12278;53.058;9.028;2023-04-25T04:42:15;5.90;99.90
24103;DHT22;12278;53.058;9.028;2023-04-25T04:46:22;6.10;99.90
24103;DHT22;12278;53.058;9.028;2023-04-25T04:50:25;6.00;99.90
24103;DHT22;12278;53.058;9.028;2023-04-25T04:54:38;6.00;99.90
24103;DHT22;12278;53.058;9.028;2023-04-25T04:58:38;6.20;99.90
24103;DHT22;12278;53.058;9.028;2023-04-25T05:02:39;6.20;99.90
24103;DHT22;12278;53.058;9.028;2023-04-25T05:06:40;6.30;99.90
24103;DHT22;12278;53.058;9.028;2023-04-25T05:10:46;6.30;99.90
24103;DHT22;12278;53.058;9.028;2023-04-25T05:15:03;6.40;99.90
24103;DHT22;12278;53.058;9.028;2023-04-25T05:19:04;6.40;99.90
24103;DHT22;12278;53.058;9.028;2023-04-25T05:23:05;6.40;99.90
24103;DHT22;12278;53.058;9.028;2023-04-25T05:27:05;6.40;99.90
24103;DHT22;12278;53.058;9.028;2023-04-25T05:31:07;6.40;99.90
24103;DHT22;12278;53.058;9.028;2023-04-25T05:35:08;6.50;99.90
24103;DHT22;12278;53.058;9.028;2023-04-25T05:39:09;6.50;99.90
24103;DHT22;12278;53.058;9.028;2023-04-25T05:43:10;6.50;99.90
24103;DHT22;12278;53.058;9.028;2023-04-25T05:47:11;6.50;99.90
24103;DHT22;12278;53.058;9.028;2023-04-25T05:51:12;6.50;99.90
24103;DHT22;12278;53.058;9.028;2023-04-25T05:55:12;6.50;99.90
24103;DHT22;12278;53.058;9.028;2023-04-25T05:59:13;6.60;99.90
24103;DHT22;12278;53.058;9.028;2023-04-25T06:03:14;6.50;99.90
24103;DHT22;12278;53.058;9.028;2023-04-25T06:07:15;6.60;99.90
24103;DHT22;12278;53.058;9.028;2023-04-25T06:11:21;6.40;99.90
24103;DHT22;12278;53.058;9.028;2023-04-25T06:15:24;6.40;99.90
24103;DHT22;12278;53.058;9.028;2023-04-25T06:19:36;6.40;99.90
24103;DHT22;12278;53.058;9.028;2023-04-25T06:23:37;6.70;99.90
24103;DHT22;12278;53.058;9.028;2023-04-25T06:27:38;7.00;99.90
24103;DHT22;12278;53.058;9.028;2023-04-25T06:31:38;7.20;99.90
24103;DHT22;12278;53.058;9.028;2023-04-25T06:35:39;7.40;99.90
24103;DHT22;12278;53.058;9.028;2023-04-25T06:39:40;7.60;99.90
24103;DHT22;12278;53.058;9.028;2023-04-25T06:43:40;8.10;99.90
24103;DHT22;12278;53.058;9.028;2023-04-25T06:47:41;8.20;99.90
24103;DHT22;12278;53.058;9.028;2023-04-25T06:51:42;8.50;99.90
24103;DHT22;12278;53.058;9.028;2023-04-25T06:55:42;8.30;99.90
24103;DHT22;12278;53.058;9.028;2023-04-25T06:59:43;8.40;99.90
24103;DHT22;12278;53.058;9.028;2023-04-25T07:03:43;8.30;99.90
24103;DHT22;12278;53.058;9.028;2023-04-25T07:07:46;8.20;99.90
24103;DHT22;12278;53.058;9.028;2023-04-25T07:11:47;8.00;99.90
24103;DHT22;12278;53.058;9.028;2023-04-25T07:15:47;7.70;99.90
24103;DHT22;12278;53.058;9.028;2023-04-25T07:19:49;7.50;99.90
24103;DHT22;12278;53.058;9.028;2023-04-25T07:23:50;7.40;99.90
24103;DHT22;12278;53.058;9.028;2023-04-25T07:27:50;7.60;99.90
24103;DHT22;12278;53.058;9.028;2023-04-25T07:31:51;7.70;99.90
24103;DHT22;12278;53.058;9.028;2023-04-25T07:35:52;7.90;99.90
24103;DHT22;12278;53.058;9.028;2023-04-25T07:39:53;8.00;99.90
24103;DHT22;12278;53.058;9.028;2023-04-25T07:43:53;8.10;99.90
24103;DHT22;12278;53.058;9.028;2023-04-25T07:47:54;8.40;99.90
24103;DHT22;12278;53.058;9.028;2023-04-25T07:51:55;8.50;99.90
24103;DHT22;12278;53.058;9.028;2023-04-25T07:55:55;9.40;99.90
24103;DHT22;12278;53.058;9.028;2023-04-25T07:59:56;9.60;99.90
24103;DHT22;12278;53.058;9.028;2023-04-25T08:03:57;9.40;99.90
24103;DHT22;12278;53.058;9.028;2023-04-25T08:07:57;10.00;99.90
24103;DHT22;12278;53.058;9.028;2023-04-25T08:11:58;10.60;99.90
24103;DHT22;12278;53.058;9.028;2023-04-25T08:15:59;9.80;99.90
24103;DHT22;12278;53.058;9.028;2023-04-25T08:20:00;9.60;99.90
24103;DHT22;12278;53.058;9.028;2023-04-25T08:24:00;9.30;99.90
24103;DHT22;12278;53.058;9.028;2023-04-25T08:28:01;9.20;99.90
24103;DHT22;12278;53.058;9.028;2023-04-25T08:32:03;9.10;99.90
24103;DHT22;12278;53.058;9.028;2023-04-25T08:36:04;8.80;99.90
24103;DHT22;12278;53.058;9.028;2023-04-25T08:40:11;8.60;99.90
24103;DHT22;12278;53.058;9.028;2023-04-25T08:44:12;8.60;99.90
24103;DHT22;12278;53.058;9.028;2023-04-25T08:48:14;8.30;99.90
24103;DHT22;12278;53.058;9.028;2023-04-25T08:52:17;8.00;99.90
24103;DHT22;12278;53.058;9.028;2023-04-25T08:56:47;8.10;99.90
24103;DHT22;12278;53.058;9.028;2023-04-25T09:00:49;8.00;99.90
24103;DHT22;12278;53.058;9.028;2023-04-25T09:04:50;8.20;99.90
24103;DHT22;12278;53.058;9.028;2023-04-25T09:08:51;8.50;99.90
24103;DHT22;12278;53.058;9.028;2023-04-25T09:13:24;8.70;99.90
24103;DHT22;12278;53.058;9.028;2023-04-25T09:17:36;8.80;99.90
24103;DHT22;12278;53.058;9.028;2023-04-25T09:21:40;9.20;99.90
24103;DHT22;12278;53.058;9.028;2023-04-25T09:25:41;9.40;99.90
24103;DHT22;12278;53.058;9.028;2023-04-25T09:29:44;10.40;99.90
24103;DHT22;12278;53.058;9.028;2023-04-25T09:33:45;10.70;99.90
24103;DHT22;12278;53.058;9.028;2023-04-25T09:37:46;10.70;99.90
24103;DHT22;12278;53.058;9.028;2023-04-25T09:41:46;11.30;99.90
24103;DHT22;12278;53.058;9.028;2023-04-25T09:45:47;11.50;99.90
24103;DHT22;12278;53.058;9.028;2023-04-25T09:49:48;10.90;99.90
24103;DHT22;12278;53.058;9.028;2023-04-25T09:53:49;10.30;99.90
24103;DHT22;12278;53.058;9.028;2023-04-25T09:57:53;9.10;99.90
24103;DHT22;12278;53.058;9.028;2023-04-25T10:01:55;8.00;99.90
24103;DHT22;12278;53.058;9.028;2023-04-25T10:06:01;7.30;99.90
24103;DHT22;12278;53.058;9.028;2023-04-25T10:10:04;7.60;99.90
24103;DHT22;12278;53.058;9.028;2023-04-25T10:14:05;8.30;99.90
24103;DHT22;12278;53.058;9.028;2023-04-25T10:18:06;9.50;99.90
24103;DHT22;12278;53.058;9.028;2023-04-25T10:26:29;10.20;99.90
24103;DHT22;12278;53.058;9.028;2023-04-25T10:30:29;10.60;99.90
24103;DHT22;12278;53.058;9.028;2023-04-25T10:34:44;11.60;99.90
24103;DHT22;12278;53.058;9.028;2023-04-25T10:38:48;12.00;99.90
24103;DHT22;12278;53.058;9.028;2023-04-25T10:42:53;13.10;99.90
24103;DHT22;12278;53.058;9.028;2023-04-25T10:46:59;13.10;97.20
24103;DHT22;12278;53.058;9.028;2023-04-25T10:51:11;12.70;98.60
24103;DHT22;12278;53.058;9.028;2023-04-25T10:55:14;11.60;99.10
24103;DHT22;12278;53.058;9.028;2023-04-25T10:59:16;11.70;99.90
24103;DHT22;12278;53.058;9.028;2023-04-25T11:03:21;11.80;99.50
24103;DHT22;12278;53.058;9.028;2023-04-25T11:07:47;12.30;98.90
24103;DHT22;12278;53.058;9.028;2023-04-25T11:11:54;12.30;99.90
24103;DHT22;12278;53.058;9.028;2023-04-25T11:15:55;12.70;99.90
24103;DHT22;12278;53.058;9.028;2023-04-25T11:19:56;13.90;99.90
24103;DHT22;12278;53.058;9.028;2023-04-25T11:23:57;13.80;97.90
24103;DHT22;12278;53.058;9.028;2023-04-25T11:27:58;12.60;97.30
24103;DHT22;12278;53.058;9.028;2023-04-25T11:32:01;12.60;98.30
24103;DHT22;12278;53.058;9.028;2023-04-25T11:36:02;11.50;99.90
24103;DHT22;12278;53.058;9.028;2023-04-25T11:40:03;10.10;99.90
24103;DHT22;12278;53.058;9.028;2023-04-25T11:44:06;9.40;99.90
24103;DHT22;12278;53.058;9.028;2023-04-25T11:48:07;8.50;99.90
24103;DHT22;12278;53.058;9.028;2023-04-25T11:52:08;8.50;99.90
24103;DHT22;12278;53.058;9.028;2023-04-25T11:56:12;8.80;99.90
24103;DHT22;12278;53.058;9.028;2023-04-25T12:00:20;8.60;99.90
24103;DHT22;12278;53.058;9.028;2023-04-25T12:04:23;8.40;99.90
24103;DHT22;12278;53.058;9.028;2023-04-25T12:08:25;8.50;99.90
24103;DHT22;12278;53.058;9.028;2023-04-25T12:12:31;9.00;99.90
24103;DHT22;12278;53.058;9.028;2023-04-25T12:16:46;9.20;99.90
24103;DHT22;12278;53.058;9.028;2023-04-25T12:20:47;9.40;99.90
24103;DHT22;12278;53.058;9.028;2023-04-25T12:24:47;10.00;99.90
24103;DHT22;12278;53.058;9.028;2023-04-25T12:28:48;9.40;99.90
24103;DHT22;12278;53.058;9.028;2023-04-25T12:32:49;9.00;99.90
24103;DHT22;12278;53.058;9.028;2023-04-25T12:36:54;8.80;99.90
24103;DHT22;12278;53.058;9.028;2023-04-25T12:40:58;9.00;99.90
24103;DHT22;12278;53.058;9.028;2023-04-25T12:44:59;9.00;99.90
24103;DHT22;12278;53.058;9.028;2023-04-25T12:49:00;9.40;99.90
24103;DHT22;12278;53.058;9.028;2023-04-25T12:53:01;10.30;99.90
24103;DHT22;12278;53.058;9.028;2023-04-25T12:57:02;10.50;99.90
24103;DHT22;12278;53.058;9.028;2023-04-25T13:01:03;10.50;99.90
24103;DHT22;12278;53.058;9.028;2023-04-25T13:05:04;12.00;99.90
24103;DHT22;12278;53.058;9.028;2023-04-25T13:09:08;12.70;99.90
24103;DHT22;12278;53.058;9.028;2023-04-25T13:13:08;14.30;99.90
24103;DHT22;12278;53.058;9.028;2023-04-25T13:17:09;14.30;97.00
24103;DHT22;12278;53.058;9.028;2023-04-25T13:21:10;12.30;99.00
24103;DHT22;12278;53.058;9.028;2023-04-25T13:25:11;10.40;99.90
24103;DHT22;12278;53.058;9.028;2023-04-25T13:29:12;8.80;99.90
24103;DHT22;12278;53.058;9.028;2023-04-25T13:33:16;8.10;99.90
24103;DHT22;12278;53.058;9.028;2023-04-25T13:37:17;7.90;99.90
24103;DHT22;12278;53.058;9.028;2023-04-25T13:41:17;8.20;99.90
24103;DHT22;12278;53.058;9.028;2023-04-25T13:45:19;9.40;99.90
24103;DHT22;12278;53.058;9.028;2023-04-25T13:49:20;10.60;99.90
24103;DHT22;12278;53.058;9.028;2023-04-25T13:53:23;12.80;99.90
24103;DHT22;12278;53.058;9.028;2023-04-25T13:57:24;14.50;99.60
24103;DHT22;12278;53.058;9.028;2023-04-25T14:01:24;15.70;94.30
24103;DHT22;12278;53.058;9.028;2023-04-25T14:05:25;16.70;94.30
24103;DHT22;12278;53.058;9.028;2023-04-25T14:09:26;16.40;91.50
24103;DHT22;12278;53.058;9.028;2023-04-25T14:13:27;13.80;95.60
24103;DHT22;12278;53.058;9.028;2023-04-25T14:17:28;12.40;97.70
24103;DHT22;12278;53.058;9.028;2023-04-25T14:21:29;11.60;98.40
24103;DHT22;12278;53.058;9.028;2023-04-25T14:25:32;10.80;99.90
24103;DHT22;12278;53.058;9.028;2023-04-25T14:29:32;11.40;99.90
24103;DHT22;12278;53.058;9.028;2023-04-25T14:33:33;15.10;97.00
24103;DHT22;12278;53.058;9.028;2023-04-25T14:37:34;16.50;91.50
24103;DHT22;12278;53.058;9.028;2023-04-25T14:41:35;16.10;90.30
24103;DHT22;12278;53.058;9.028;2023-04-25T14:45:35;17.00;85.80
24103;DHT22;12278;53.058;9.028;2023-04-25T14:49:36;16.30;86.50
24103;DHT22;12278;53.058;9.028;2023-04-25T14:53:37;13.60;95.30
24103;DHT22;12278;53.058;9.028;2023-04-25T14:57:37;11.10;99.90
24103;DHT22;12278;53.058;9.028;2023-04-25T15:01:39;9.90;99.90
24103;DHT22;12278;53.058;9.028;2023-04-25T15:05:42;9.20;99.90
24103;DHT22;12278;53.058;9.028;2023-04-25T15:09:42;9.00;99.90
24103;DHT22;12278;53.058;9.028;2023-04-25T15:13:43;8.90;99.90
24103;DHT22;12278;53.058;9.028;2023-04-25T15:17:44;8.90;99.90
24103;DHT22;12278;53.058;9.028;2023-04-25T15:21:45;10.00;99.90
24103;DHT22;12278;53.058;9.028;2023-04-25T15:25:47;11.70;99.40
24103;DHT22;12278;53.058;9.028;2023-04-25T15:29:47;10.70;99.90
24103;DHT22;12278;53.058;9.028;2023-04-25T15:33:48;10.80;99.90
24103;DHT22;12278;53.058;9.028;2023-04-25T15:37:49;10.80;99.50
24103;DHT22;12278;53.058;9.028;2023-04-25T15:41:50;10.00;99.90
24103;DHT22;12278;53.058;9.028;2023-04-25T15:45:51;9.20;99.90
24103;DHT22;12278;53.058;9.028;2023-04-25T15:49:52;9.20;99.90
24103;DHT22;12278;53.058;9.028;2023-04-25T15:53:52;9.30;99.90
24103;DHT22;12278;53.058;9.028;2023-04-25T15:57:53;12.30;99.90
24103;DHT22;12278;53.058;9.028;2023-04-25T16:01:54;14.60;95.40
24103;DHT22;12278;53.058;9.028;2023-04-25T16:05:55;15.40;94.60
24103;DHT22;12278;53.058;9.028;2023-04-25T16:09:56;15.40;94.90
24103;DHT22;12278;53.058;9.028;2023-04-25T16:13:57;15.90;93.00
24103;DHT22;12278;53.058;9.028;2023-04-25T16:17:57;12.70;97.10
24103;DHT22;12278;53.058;9.028;2023-04-25T16:21:58;11.50;99.90
24103;DHT22;12278;53.058;9.028;2023-04-25T16:25:59;11.00;99.90
24103;DHT22;12278;53.058;9.028;2023-04-25T16:30:03;12.90;99.30
24103;DHT22;12278;53.058;9.028;2023-04-25T16:34:04;11.90;99.80
24103;DHT22;12278;53.058;9.028;2023-04-25T16:38:05;10.60;99.90
24103;DHT22;12278;53.058;9.028;2023-04-25T16:42:05;10.00;99.90
24103;DHT22;12278;53.058;9.028;2023-04-25T16:46:06;10.00;99.90
24103;DHT22;12278;53.058;9.028;2023-04-25T16:50:07;9.60;99.90
24103;DHT22;12278;53.058;9.028;2023-04-25T16:54:08;9.20;99.90
24103;DHT22;12278;53.058;9.028;2023-04-25T16:58:09;8.90;99.90
24103;DHT22;12278;53.058;9.028;2023-04-25T17:02:14;8.80;99.90
24103;DHT22;12278;53.058;9.028;2023-04-25T17:06:15;9.40;99.90
24103;DHT22;12278;53.058;9.028;2023-04-25T17:10:16;9.80;99.90
24103;DHT22;12278;53.058;9.028;2023-04-25T17:14:17;9.80;99.90
24103;DHT22;12278;53.058;9.028;2023-04-25T17:18:18;9.30;99.90
24103;DHT22;12278;53.058;9.028;2023-04-25T17:22:18;8.80;99.90
24103;DHT22;12278;53.058;9.028;2023-04-25T17:26:20;8.50;99.90
24103;DHT22;12278;53.058;9.028;2023-04-25T17:30:21;8.30;99.90
24103;DHT22;12278;53.058;9.028;2023-04-25T17:34:23;8.20;99.90
24103;DHT22;12278;53.058;9.028;2023-04-25T17:38:24;7.90;99.90
24103;DHT22;12278;53.058;9.028;2023-04-25T17:42:25;7.70;99.90
24103;DHT22;12278;53.058;9.028;2023-04-25T17:46:26;7.70;99.90
24103;DHT22;12278;53.058;9.028;2023-04-25T17:50:28;7.70;99.90
24103;DHT22;12278;53.058;9.028;2023-04-25T17:54:29;7.60;99.90
24103;DHT22;12278;53.058;9.028;2023-04-25T17:58:30;7.40;99.90
24103;DHT22;12278;53.058;9.028;2023-04-25T18:02:30;7.40;99.90
24103;DHT22;12278;53.058;9.028;2023-04-25T18:06:31;7.50;99.90
24103;DHT22;12278;53.058;9.028;2023-04-25T18:10:33;7.40;99.90
24103;DHT22;12278;53.058;9.028;2023-04-25T18:14:33;7.40;99.90
24103;DHT22;12278;53.058;9.028;2023-04-25T18:18:35;7.30;99.90
24103;DHT22;12278;53.058;9.028;2023-04-25T18:22:37;7.20;99.90
24103;DHT22;12278;53.058;9.028;2023-04-25T18:26:38;7.10;99.90
24103;DHT22;12278;53.058;9.028;2023-04-25T18:30:39;7.10;99.90
24103;DHT22;12278;53.058;9.028;2023-04-25T18:34:42;7.00;99.90
24103;DHT22;12278;53.058;9.028;2023-04-25T18:38:45;7.00;99.90
24103;DHT22;12278;53.058;9.028;2023-04-25T18:42:49;7.00;99.90
24103;DHT22;12278;53.058;9.028;2023-04-25T18:46:50;6.90;99.90
24103;DHT22;12278;53.058;9.028;2023-04-25T18:50:52;6.80;99.90
24103;DHT22;12278;53.058;9.028;2023-04-25T18:54:52;6.70;99.90
24103;DHT22;12278;53.058;9.028;2023-04-25T18:58:54;6.70;99.90
24103;DHT22;12278;53.058;9.028;2023-04-25T19:02:55;6.60;99.90
24103;DHT22;12278;53.058;9.028;2023-04-25T19:07:02;6.50;99.90
24103;DHT22;12278;53.058;9.028;2023-04-25T19:11:03;6.50;99.90
24103;DHT22;12278;53.058;9.028;2023-04-25T19:15:05;6.40;99.90
24103;DHT22;12278;53.058;9.028;2023-04-25T19:19:07;6.30;99.90
24103;DHT22;12278;53.058;9.028;2023-04-25T19:23:18;6.30;99.90
24103;DHT22;12278;53.058;9.028;2023-04-25T19:27:19;6.30;99.90
24103;DHT22;12278;53.058;9.028;2023-04-25T19:31:20;6.20;99.90
24103;DHT22;12278;53.058;9.028;2023-04-25T19:35:20;6.10;99.90
24103;DHT22;12278;53.058;9.028;2023-04-25T19:39:21;6.10;99.90
24103;DHT22;12278;53.058;9.028;2023-04-25T19:43:22;6.00;99.90
24103;DHT22;12278;53.058;9.028;2023-04-25T19:47:23;6.00;99.90
24103;DHT22;12278;53.058;9.028;2023-04-25T19:51:24;6.00;99.90
24103;DHT22;12278;53.058;9.028;2023-04-25T19:55:26;5.90;99.90
24103;DHT22;12278;53.058;9.028;2023-04-25T19:59:27;5.80;99.90
24103;DHT22;12278;53.058;9.028;2023-04-25T20:03:28;5.70;99.90
24103;DHT22;12278;53.058;9.028;2023-04-25T20:07:29;5.70;99.90
24103;DHT22;12278;53.058;9.028;2023-04-25T20:11:31;5.70;99.90
24103;DHT22;12278;53.058;9.028;2023-04-25T20:15:32;5.70;99.90
24103;DHT22;12278;53.058;9.028;2023-04-25T20:19:32;5.60;99.90
24103;DHT22;12278;53.058;9.028;2023-04-25T20:23:39;5.60;99.90
24103;DHT22;12278;53.058;9.028;2023-04-25T20:27:41;5.60;99.90
24103;DHT22;12278;53.058;9.028;2023-04-25T20:31:42;5.50;99.90
24103;DHT22;12278;53.058;9.028;2023-04-25T20:35:43;5.50;99.90
24103;DHT22;12278;53.058;9.028;2023-04-25T20:39:45;5.50;99.90
24103;DHT22;12278;53.058;9.028;2023-04-25T20:43:45;5.70;99.90
24103;DHT22;12278;53.058;9.028;2023-04-25T20:47:46;5.80;99.90
24103;DHT22;12278;53.058;9.028;2023-04-25T20:51:47;5.90;99.90
24103;DHT22;12278;53.058;9.028;2023-04-25T20:55:48;5.90;99.90
24103;DHT22;12278;53.058;9.028;2023-04-25T20:59:48;5.90;99.90
24103;DHT22;12278;53.058;9.028;2023-04-25T21:03:50;5.90;99.90
24103;DHT22;12278;53.058;9.028;2023-04-25T21:07:54;5.90;99.90
24103;DHT22;12278;53.058;9.028;2023-04-25T21:11:56;5.90;99.90
24103;DHT22;12278;53.058;9.028;2023-04-25T21:15:57;5.90;99.90
24103;DHT22;12278;53.058;9.028;2023-04-25T21:19:57;6.00;99.90
24103;DHT22;12278;53.058;9.028;2023-04-25T21:23:58;5.90;99.90
24103;DHT22;12278;53.058;9.028;2023-04-25T21:27:59;5.90;99.90
24103;DHT22;12278;53.058;9.028;2023-04-25T21:32:01;5.80;99.90
24103;DHT22;12278;53.058;9.028;2023-04-25T21:36:02;5.80;99.90
24103;DHT22;12278;53.058;9.028;2023-04-25T21:40:08;5.70;99.90
24103;DHT22;12278;53.058;9.028;2023-04-25T21:44:09;5.70;99.90
24103;DHT22;12278;53.058;9.028;2023-04-25T21:48:11;5.60;99.90
24103;DHT22;12278;53.058;9.028;2023-04-25T21:52:12;5.50;99.90
24103;DHT22;12278;53.058;9.028;2023-04-25T21:56:13;5.50;99.90
24103;DHT22;12278;53.058;9.028;2023-04-25T22:00:14;5.30;99.90
24103;DHT22;12278;53.058;9.028;2023-04-25T22:04:23;5.30;99.90
24103;DHT22;12278;53.058;9.028;2023-04-25T22:08:25;5.30;99.90
24103;DHT22;12278;53.058;9.028;2023-04-25T22:12:26;5.20;99.90
24103;DHT22;12278;53.058;9.028;2023-04-25T22:16:26;5.20;99.90
24103;DHT22;12278;53.058;9.028;2023-04-25T22:20:28;5.10;99.90
24103;DHT22;12278;53.058;9.028;2023-04-25T22:24:29;5.10;99.90
24103;DHT22;12278;53.058;9.028;2023-04-25T22:28:30;5.10;99.90
24103;DHT22;12278;53.058;9.028;2023-04-25T22:32:32;5.20;99.90
24103;DHT22;12278;53.058;9.028;2023-04-25T22:36:33;5.10;99.90
24103;DHT22;12278;53.058;9.028;2023-04-25T22:40:38;4.90;99.90
24103;DHT22;12278;53.058;9.028;2023-04-25T22:44:39;4.90;99.90
24103;DHT22;12278;53.058;9.028;2023-04-25T22:48:39;4.80;99.90
24103;DHT22;12278;53.058;9.028;2023-04-25T22:52:40;4.70;99.90
24103;DHT22;12278;53.058;9.028;2023-04-25T22:56:41;4.60;99.90
24103;DHT22;12278;53.058;9.028;2023-04-25T23:00:42;4.60;99.90
24103;DHT22;12278;53.058;9.028;2023-04-25T23:04:43;4.60;99.90
24103;DHT22;12278;53.058;9.028;2023-04-25T23:08:44;4.60;99.90
24103;DHT22;12278;53.058;9.028;2023-04-25T23:12:44;4.50;99.90
24103;DHT22;12278;53.058;9.028;2023-04-25T23:16:47;4.50;99.90
24103;DHT22;12278;53.058;9.028;2023-04-25T23:20:48;4.50;99.90
24103;DHT22;12278;53.058;9.028;2023-04-25T23:24:49;4.40;99.90
24103;DHT22;12278;53.058;9.028;2023-04-25T23:28:50;4.50;99.90
24103;DHT22;12278;53.058;9.028;2023-04-25T23:32:51;4.40;99.90
24103;DHT22;12278;53.058;9.028;2023-04-25T23:36:56;4.30;99.90
24103;DHT22;12278;53.058;9.028;2023-04-25T23:40:57;4.30;99.90
24103;DHT22;12278;53.058;9.028;2023-04-25T23:44:58;4.30;99.90
24103;DHT22;12278;53.058;9.028;2023-04-25T23:48:58;4.20;99.90
24103;DHT22;12278;53.058;9.028;2023-04-25T23:53:02;4.20;99.90
24103;DHT22;12278;53.058;9.028;2023-04-25T23:57:03;4.10;99.90
